Time;durP1;ratioP1;P1;durP2;ratioP2;P2;SDS_P1;SDS_P2;PMS_P1;PMS_P2;Temp;Humidity;BMP_temperature;BMP_pressure;BME280_temperature;BME280_humidity;BME280_pressure;Samples;Min_cycle;Max_cycle;Signal;HPM_P1;HPM_P2
2021/07/20 00:01:00;;;;;;;31.50;27.20;;;538.10;2406.40;;;;;;5072549;28;20029;-64
2021/07/20 00:03:26;;;;;;;32.20;25.30;;;538.20;2406.40;;;;;;5072296;28;20099;-62
2021/07/20 00:05:51;;;;;;;30.00;25.60;;;538.00;2406.40;;;;;;5072398;28;20032;-64
2021/07/20 00:08:18;;;;;;;32.38;24.77;;;538.00;2406.40;;;;;;5084477;28;20028;-59
2021/07/20 00:11:10;;;;;;;33.60;27.83;;;538.00;2406.40;;;;;;5092627;28;20051;-57
2021/07/20 00:13:35;;;;;;;33.58;26.58;;;538.00;2406.40;;;;;;5088183;28;20209;-65
2021/07/20 00:16:01;;;;;;;31.15;25.40;;;538.00;2406.40;;;;;;5092551;28;20109;-60
2021/07/20 00:18:30;;;;;;;30.75;25.40;;;538.00;2406.40;;;;;;5092326;28;20028;-59
2021/07/20 00:20:57;;;;;;;29.77;23.90;;;538.00;2406.40;;;;;;5092161;28;20036;-60
2021/07/20 00:23:23;;;;;;;31.02;24.15;;;538.00;2406.40;;;;;;5092523;28;20351;-58
2021/07/20 00:25:50;;;;;;;33.75;24.95;;;538.00;2406.40;;;;;;5092419;28;20043;-62
2021/07/20 00:28:17;;;;;;;27.92;23.55;;;538.00;2406.40;;;;;;5091749;28;20036;-59
2021/07/20 00:30:43;;;;;;;25.95;22.10;;;538.00;2406.40;;;;;;5092194;28;20536;-64
2021/07/20 00:33:10;;;;;;;25.60;22.85;;;538.00;2406.40;;;;;;5092223;28;20085;-63
2021/07/20 00:35:36;;;;;;;26.00;21.67;;;538.00;2406.40;;;;;;5091918;28;20028;-62
2021/07/20 00:38:02;;;;;;;27.10;22.17;;;538.00;2406.40;;;;;;5092067;28;20021;-58
2021/07/20 00:40:28;;;;;;;27.13;23.13;;;538.00;2406.40;;;;;;5091819;28;20031;-61
2021/07/20 00:42:54;;;;;;;28.85;24.30;;;538.00;2406.40;;;;;;5090992;28;20027;-57
2021/07/20 00:45:20;;;;;;;31.88;24.63;;;538.00;2406.40;;;;;;5091895;28;20028;-58
2021/07/20 00:47:47;;;;;;;29.63;23.70;;;537.90;2406.40;;;;;;5091745;28;20031;-61
2021/07/20 00:50:15;;;;;;;32.20;24.75;;;537.90;2406.40;;;;;;5091772;28;20157;-61
2021/07/20 00:52:41;;;;;;;26.85;23.77;;;537.80;2406.40;;;;;;5091736;28;20024;-61
2021/07/20 00:55:09;;;;;;;29.10;23.35;;;537.80;2406.40;;;;;;5091739;28;20390;-61
2021/07/20 00:57:35;;;;;;;30.40;23.60;;;537.80;2406.40;;;;;;5091167;28;20036;-59
2021/07/20 01:00:01;;;;;;;26.65;23.67;;;537.80;2406.40;;;;;;5091635;28;20039;-62
2021/07/20 01:02:27;;;;;;;31.88;24.33;;;537.60;2406.40;;;;;;5091360;28;20528;-59
2021/07/20 01:04:53;;;;;;;31.75;25.30;;;537.60;2406.40;;;;;;5091463;28;20028;-62
2021/07/20 01:07:21;;;;;;;27.33;23.45;;;512.90;2380.80;;;;;;5091659;28;20110;-61
2021/07/20 01:09:48;;;;;;;29.83;23.73;;;512.90;2380.80;;;;;;5091404;28;20028;-61
2021/07/20 01:12:14;;;;;;;28.17;23.50;;;512.90;2380.80;;;;;;5091090;28;20024;-67
2021/07/20 01:14:41;;;;;;;26.40;22.60;;;512.90;2380.80;;;;;;5091468;28;20089;-57
2021/07/20 01:17:10;;;;;;;24.75;20.90;;;512.90;2380.80;;;;;;5091135;28;20462;-60
2021/07/20 01:19:36;;;;;;;27.08;20.80;;;512.90;2380.80;;;;;;5090317;28;20036;-59
2021/07/20 01:22:04;;;;;;;25.50;22.13;;;512.80;2380.80;;;;;;5091335;28;20024;-58
2021/07/20 01:24:31;;;;;;;25.10;21.77;;;512.80;2380.80;;;;;;5091332;28;20047;-60
2021/07/20 01:26:57;;;;;;;26.17;21.70;;;512.80;2380.80;;;;;;5090863;28;20036;-60
2021/07/20 01:29:25;;;;;;;28.65;22.10;;;512.80;2380.80;;;;;;5090623;28;20044;-59
2021/07/20 01:31:51;;;;;;;25.63;21.77;;;512.70;2380.80;;;;;;5091078;28;20121;-58
2021/07/20 01:34:19;;;;;;;26.65;22.48;;;512.60;2380.80;;;;;;5090907;28;20016;-61
2021/07/20 01:36:47;;;;;;;25.70;21.48;;;512.60;2380.80;;;;;;5090972;28;20028;-62
2021/07/20 01:39:14;;;;;;;28.33;22.77;;;512.60;2380.80;;;;;;5090776;28;20394;-61
2021/07/20 01:41:41;;;;;;;24.35;20.55;;;512.60;2380.80;;;;;;5090949;28;20048;-61
2021/07/20 01:44:10;;;;;;;25.33;19.20;;;512.60;2380.80;;;;;;5090376;28;20038;-60
2021/07/20 01:46:38;;;;;;;22.77;20.38;;;512.60;2380.80;;;;;;5090924;28;20051;-59
2021/07/20 01:49:08;;;;;;;23.17;20.65;;;512.50;2380.80;;;;;;5090786;28;20038;-58
2021/07/20 01:51:36;;;;;;;25.42;21.15;;;512.50;2380.80;;;;;;5090678;28;20048;-60
2021/07/20 01:54:04;;;;;;;27.63;21.55;;;512.50;2380.80;;;;;;5090768;28;20024;-62
2021/07/20 01:56:30;;;;;;;24.08;21.23;;;512.50;2380.80;;;;;;5090690;28;20076;-62
2021/07/20 01:58:56;;;;;;;28.25;22.15;;;512.50;2380.80;;;;;;5089904;28;20032;-64
2021/07/20 02:01:33;;;;;;;27.63;22.83;;;512.50;2380.80;;;;;;5090549;28;20119;-63
2021/07/20 02:09:35;;;;;;;21.15;18.65;;;512.30;2380.80;;;;;;5089926;28;20031;-62
2021/07/20 02:12:11;;;;;;;25.55;20.20;;;512.30;2380.80;;;;;;5090328;28;20085;-61
2021/07/20 02:14:41;;;;;;;23.58;19.27;;;512.30;2380.80;;;;;;5090113;28;20012;-63
2021/07/20 02:17:09;;;;;;;21.95;18.30;;;512.40;2380.80;;;;;;5090032;28;20032;-63
2021/07/20 02:19:54;;;;;;;27.33;19.98;;;512.40;2380.80;;;;;;5090054;28;20039;-64
2021/07/20 02:22:23;;;;;;;20.75;18.27;;;512.40;2380.80;;;;;;5090718;28;20024;-64
2021/07/20 02:24:55;;;;;;;22.90;18.33;;;512.40;2380.80;;;;;;5090442;28;20032;-62
2021/07/20 02:27:23;;;;;;;20.73;18.52;;;512.40;2380.80;;;;;;5090262;28;20032;-65
2021/07/20 02:29:53;;;;;;;20.73;18.50;;;512.40;2380.80;;;;;;5090038;28;20052;-63
2021/07/20 02:32:21;;;;;;;27.90;20.27;;;512.50;2380.80;;;;;;5089861;28;20064;-63
2021/07/20 02:34:47;;;;;;;25.13;18.40;;;512.40;2380.80;;;;;;5090068;28;20028;-63
2021/07/20 02:37:13;;;;;;;26.85;20.83;;;512.40;2380.80;;;;;;5090063;28;20063;-62
2021/07/20 02:39:41;;;;;;;24.75;19.10;;;512.40;2380.80;;;;;;5090066;28;20127;-65
2021/07/20 02:42:08;;;;;;;24.38;20.25;;;512.30;2380.80;;;;;;5090022;28;20024;-64
2021/07/20 02:44:34;;;;;;;24.98;19.55;;;512.30;2380.80;;;;;;5089974;28;20790;-63
2021/07/20 02:47:02;;;;;;;23.00;19.30;;;512.30;2380.80;;;;;;5090011;28;20028;-60
2021/07/20 02:49:30;;;;;;;21.48;19.08;;;512.40;2380.80;;;;;;5089443;28;20026;-65
2021/07/20 02:51:58;;;;;;;22.40;18.13;;;512.30;2380.80;;;;;;5089992;28;20020;-58
2021/07/20 02:54:26;;;;;;;18.80;16.55;;;512.30;2380.80;;;;;;5089929;28;20028;-62
2021/07/20 02:56:52;;;;;;;19.88;17.70;;;512.40;2380.80;;;;;;5090205;28;20047;-62
2021/07/20 02:59:23;;;;;;;19.83;17.50;;;512.40;2380.80;;;;;;5089734;28;20043;-61
2021/07/20 03:01:52;;;;;;;17.60;15.80;;;512.40;2380.80;;;;;;5089997;28;20079;-61
2021/07/20 03:04:18;;;;;;;18.15;15.93;;;512.40;2380.80;;;;;;5089916;28;20112;-66
2021/07/20 03:06:48;;;;;;;19.85;14.90;;;512.50;2380.80;;;;;;5090050;28;20232;-62
2021/07/20 03:09:15;;;;;;;18.92;16.33;;;512.50;2380.80;;;;;;5086390;28;20055;-56
2021/07/20 03:11:44;;;;;;;21.85;17.17;;;512.50;2380.80;;;;;;5069713;28;20029;-59
2021/07/20 03:14:14;;;;;;;18.13;16.05;;;512.60;2380.80;;;;;;5069457;28;20029;-64
2021/07/20 03:16:43;;;;;;;19.05;15.40;;;512.60;2380.80;;;;;;5069660;28;20465;-65
2021/07/20 03:19:12;;;;;;;16.65;14.90;;;512.60;2380.80;;;;;;5069677;28;20060;-64
2021/07/20 03:21:40;;;;;;;17.92;14.68;;;512.70;2380.80;;;;;;5069377;28;20024;-63
2021/07/20 03:24:08;;;;;;;18.15;14.85;;;512.80;2380.80;;;;;;5069232;28;20029;-62
2021/07/20 03:26:35;;;;;;;14.50;12.68;;;512.80;2380.80;;;;;;5069562;28;20028;-59
2021/07/20 03:29:05;;;;;;;17.58;14.52;;;512.80;2380.80;;;;;;5069129;28;20044;-65
2021/07/20 03:31:33;;;;;;;17.95;13.88;;;512.90;2380.80;;;;;;5069389;28;20036;-63
2021/07/20 03:34:01;;;;;;;16.60;14.35;;;512.90;2380.80;;;;;;5069371;28;20473;-65
2021/07/20 03:36:27;;;;;;;15.20;13.55;;;512.90;2380.80;;;;;;5069486;28;20485;-64
2021/07/20 03:38:54;;;;;;;14.38;12.80;;;512.90;2380.80;;;;;;5069373;28;20040;-58
2021/07/20 03:41:21;;;;;;;17.48;13.45;;;512.90;2380.80;;;;;;5069293;28;20039;-62
2021/07/20 03:43:48;;;;;;;14.30;12.82;;;537.60;2406.40;;;;;;5071701;28;20032;-63
2021/07/20 03:46:15;;;;;;;14.70;13.10;;;537.60;2406.40;;;;;;5072656;28;20039;-63
2021/07/20 03:48:42;;;;;;;14.35;12.57;;;537.70;2406.40;;;;;;5073013;28;20425;-63
2021/07/20 03:51:10;;;;;;;13.75;11.68;;;537.70;2406.40;;;;;;5072819;28;20044;-62
2021/07/20 03:53:37;;;;;;;15.27;12.25;;;537.60;2406.40;;;;;;5073761;28;20103;-63
2021/07/20 03:56:05;;;;;;;15.18;12.55;;;537.60;2406.40;;;;;;5081928;28;20532;-60
2021/07/20 03:58:34;;;;;;;17.92;13.30;;;537.80;2406.40;;;;;;5080330;28;20070;-64
2021/07/20 04:01:01;;;;;;;13.77;12.35;;;537.80;2406.40;;;;;;5072581;28;20040;-60
2021/07/20 04:03:30;;;;;;;15.05;13.07;;;537.80;2406.40;;;;;;5072565;28;20017;-59
2021/07/20 04:05:58;;;;;;;13.82;12.30;;;537.90;2406.40;;;;;;5072262;28;20020;-62
2021/07/20 04:08:25;;;;;;;15.20;12.88;;;537.80;2406.40;;;;;;5089509;28;20390;-60
2021/07/20 04:10:53;;;;;;;14.50;12.45;;;537.90;2406.40;;;;;;5092687;28;20059;-62
2021/07/20 04:13:20;;;;;;;16.38;13.65;;;537.90;2406.40;;;;;;5092734;28;20028;-63
2021/07/20 04:15:54;;;;;;;16.73;13.23;;;538.00;2406.40;;;;;;5088105;28;20051;-61
2021/07/20 04:18:21;;;;;;;16.17;13.02;;;538.00;2406.40;;;;;;5092743;28;20025;-57
2021/07/20 04:20:47;;;;;;;15.85;13.38;;;538.00;2406.40;;;;;;5092534;28;20040;-60
2021/07/20 04:23:14;;;;;;;16.65;13.43;;;538.00;2406.40;;;;;;5092162;28;20355;-56
2021/07/20 04:25:43;;;;;;;14.82;13.27;;;538.00;2406.40;;;;;;5092317;28;20035;-58
2021/07/20 04:28:10;;;;;;;15.90;13.13;;;537.90;2406.40;;;;;;5091995;28;20439;-63
2021/07/20 04:30:39;;;;;;;16.30;13.18;;;537.90;2406.40;;;;;;5091968;28;20024;-60
2021/07/20 04:33:05;;;;;;;14.57;12.90;;;537.90;2406.40;;;;;;5092173;28;20036;-63
2021/07/20 04:35:32;;;;;;;17.13;14.43;;;537.90;2406.40;;;;;;5092352;28;20113;-57
2021/07/20 04:38:00;;;;;;;15.73;13.75;;;537.80;2406.40;;;;;;5092107;28;20060;-61
2021/07/20 04:40:25;;;;;;;18.98;14.13;;;537.90;2406.40;;;;;;5091712;28;20119;-59
2021/07/20 04:42:51;;;;;;;15.98;13.65;;;537.80;2406.40;;;;;;5091893;28;20091;-58
2021/07/20 04:45:17;;;;;;;15.85;13.68;;;537.80;2406.40;;;;;;5091908;28;20028;-61
2021/07/20 04:47:44;;;;;;;18.88;15.70;;;537.80;2406.40;;;;;;5091948;28;20047;-57
2021/07/20 04:50:13;;;;;;;22.08;17.20;;;537.80;2406.40;;;;;;5092050;28;20137;-60
2021/07/20 04:52:41;;;;;;;23.50;19.42;;;537.80;2406.40;;;;;;5091867;28;20031;-57
2021/07/20 04:55:08;;;;;;;21.55;16.90;;;537.80;2406.40;;;;;;5091404;28;20051;-59
2021/07/20 04:57:35;;;;;;;23.35;17.55;;;538.00;2406.40;;;;;;5091236;28;20020;-58
2021/07/20 05:00:03;;;;;;;19.75;17.45;;;538.00;2406.40;;;;;;5091663;28;20042;-58
2021/07/20 05:02:30;;;;;;;23.05;17.48;;;538.00;2406.40;;;;;;5091577;28;20023;-63
2021/07/20 05:04:57;;;;;;;25.83;18.70;;;538.10;2406.40;;;;;;5091465;28;20447;-58
2021/07/20 05:07:24;;;;;;;21.17;18.13;;;538.20;2406.40;;;;;;5091448;28;20056;-56
2021/07/20 05:09:51;;;;;;;23.40;18.83;;;538.10;2406.40;;;;;;5091490;28;20032;-59
2021/07/20 05:12:18;;;;;;;22.33;17.42;;;538.10;2406.40;;;;;;5091265;28;20024;-57
2021/07/20 05:14:45;;;;;;;22.88;18.33;;;538.10;2406.40;;;;;;5091062;28;20484;-59
2021/07/20 05:17:10;;;;;;;26.02;17.58;;;538.10;2406.40;;;;;;5091503;28;20028;-59
2021/07/20 05:19:37;;;;;;;22.25;18.73;;;538.00;2406.40;;;;;;5090992;28;20038;-61
2021/07/20 05:22:04;;;;;;;22.92;19.17;;;538.00;2406.40;;;;;;5091157;28;20016;-61
2021/07/20 05:24:31;;;;;;;24.75;18.58;;;537.90;2406.40;;;;;;5091341;28;20142;-58
2021/07/20 05:26:59;;;;;;;25.20;20.10;;;538.00;2406.40;;;;;;5090845;28;20012;-57
2021/07/20 05:29:25;;;;;;;26.52;20.20;;;538.10;2406.40;;;;;;5090509;28;20123;-58
2021/07/20 05:31:52;;;;;;;24.70;19.90;;;538.20;2406.40;;;;;;5091191;28;20459;-60
2021/07/20 05:34:19;;;;;;;27.60;20.75;;;538.30;2406.40;;;;;;5090823;28;20103;-61
2021/07/20 05:36:45;;;;;;;23.10;19.10;;;538.30;2406.40;;;;;;5090888;28;20111;-58
2021/07/20 05:39:12;;;;;;;22.02;18.60;;;538.40;2406.40;;;;;;5090758;28;20036;-61
2021/07/20 05:41:42;;;;;;;22.58;18.80;;;563.20;2432.00;;;;;;5090583;28;20028;-57
2021/07/20 05:44:10;;;;;;;26.25;18.55;;;563.50;2432.00;;;;;;5090530;28;20077;-60
2021/07/20 05:46:41;;;;;;;20.67;16.90;;;563.90;2432.00;;;;;;5090758;28;20528;-59
2021/07/20 05:49:07;;;;;;;27.25;20.13;;;588.80;2432.00;;;;;;5090587;28;20028;-60
2021/07/20 05:51:37;;;;;;;21.52;17.95;;;589.10;2432.00;;;;;;5090696;28;20024;-60
2021/07/20 05:54:03;;;;;;;19.88;15.85;;;589.50;2432.00;;;;;;5090650;28;20102;-58
2021/07/20 05:56:30;;;;;;;22.08;18.42;;;589.40;2432.00;;;;;;5090622;28;20025;-61
2021/07/20 05:59:00;;;;;;;22.92;17.88;;;589.30;2432.00;;;;;;5090117;28;20086;-58
2021/07/20 06:01:29;;;;;;;21.35;18.60;;;589.00;2432.00;;;;;;5090478;28;20093;-58
2021/07/20 06:04:00;;;;;;;22.75;18.77;;;589.00;2432.00;;;;;;5090413;28;20024;-58
2021/07/20 06:06:30;;;;;;;19.85;17.80;;;589.00;2432.00;;;;;;5089811;28;20028;-59
2021/07/20 06:08:56;;;;;;;24.35;20.85;;;589.10;2432.00;;;;;;5090158;28;20027;-57
2021/07/20 06:11:24;;;;;;;27.63;20.27;;;589.10;2432.00;;;;;;5090391;28;20462;-63
2021/07/20 06:13:53;;;;;;;25.50;22.05;;;588.90;2432.00;;;;;;5090713;28;20032;-59
2021/07/20 06:16:24;;;;;;;23.52;20.15;;;588.90;2432.00;;;;;;5090384;28;20028;-60
2021/07/20 06:18:51;;;;;;;25.17;21.20;;;589.00;2432.00;;;;;;5090220;28;20063;-62
2021/07/20 06:21:20;;;;;;;31.05;22.95;;;589.00;2432.00;;;;;;5088994;28;20474;-59
2021/07/20 06:23:48;;;;;;;33.50;22.70;;;589.00;2432.00;;;;;;5090193;28;20490;-59
2021/07/20 06:26:22;;;;;;;26.10;20.55;;;589.00;2432.00;;;;;;5090159;28;20024;-58
2021/07/20 06:28:53;;;;;;;27.67;22.80;;;589.00;2432.00;;;;;;5089742;28;20402;-65
2021/07/20 06:31:19;;;;;;;32.33;24.30;;;589.00;2432.00;;;;;;5090008;28;20475;-62
2021/07/20 06:33:47;;;;;;;30.17;25.40;;;589.10;2432.00;;;;;;5089889;28;20028;-58
2021/07/20 06:36:17;;;;;;;28.00;25.05;;;589.00;2432.00;;;;;;5089995;28;20012;-60
2021/07/20 06:38:44;;;;;;;31.40;26.05;;;589.00;2432.00;;;;;;5090066;28;20025;-58
2021/07/20 06:41:11;;;;;;;33.58;27.58;;;589.00;2432.00;;;;;;5090052;28;20040;-58
2021/07/20 06:43:38;;;;;;;33.38;26.95;;;589.00;2432.00;;;;;;5089892;28;20016;-58
2021/07/20 06:46:06;;;;;;;33.53;26.75;;;588.90;2432.00;;;;;;5089770;28;20020;-62
2021/07/20 06:48:33;;;;;;;30.98;26.33;;;588.90;2432.00;;;;;;5089889;28;20032;-61
2021/07/20 06:50:59;;;;;;;33.35;29.33;;;564.10;2432.00;;;;;;5089935;28;20105;-58
2021/07/20 06:53:25;;;;;;;33.22;29.48;;;564.10;2432.00;;;;;;5089930;28;20020;-57
2021/07/20 06:55:53;;;;;;;33.22;27.40;;;564.00;2432.00;;;;;;5090252;28;20028;-59
2021/07/20 06:58:21;;;;;;;34.53;30.48;;;563.80;2432.00;;;;;;5090036;28;20088;-58
2021/07/20 07:00:49;;;;;;;31.30;27.90;;;563.90;2432.00;;;;;;5089668;28;20044;-59
2021/07/20 07:03:16;;;;;;;40.05;28.17;;;564.10;2432.00;;;;;;5089592;28;20036;-56
2021/07/20 07:05:43;;;;;;;32.60;28.08;;;588.90;2432.00;;;;;;5083479;28;20159;-56
2021/07/20 07:08:10;;;;;;;31.50;26.58;;;589.10;2432.00;;;;;;5077611;28;20021;-61
2021/07/20 07:10:37;;;;;;;29.88;25.80;;;589.10;2432.00;;;;;;5069591;28;20049;-56
2021/07/20 07:13:07;;;;;;;26.83;23.95;;;589.40;2432.00;;;;;;5069760;28;20021;-59
2021/07/20 07:15:34;;;;;;;29.58;26.38;;;589.40;2432.00;;;;;;5069757;28;20032;-61
2021/07/20 07:18:01;;;;;;;27.10;24.02;;;589.70;2432.00;;;;;;5071021;28;20029;-61
2021/07/20 07:20:27;;;;;;;28.92;25.27;;;614.50;2432.00;;;;;;5073060;28;20033;-58
2021/07/20 07:22:54;;;;;;;24.80;22.20;;;614.90;2432.00;;;;;;5073152;28;20514;-59
2021/07/20 07:25:22;;;;;;;27.33;24.50;;;615.20;2432.00;;;;;;5073269;28;20462;-57
2021/07/20 07:27:50;;;;;;;25.52;22.83;;;615.10;2432.00;;;;;;5072952;28;20024;-60
2021/07/20 07:30:19;;;;;;;23.08;20.70;;;640.20;2432.00;;;;;;5075277;28;20040;-57
2021/07/20 07:32:48;;;;;;;23.80;21.35;;;640.20;2432.00;;;;;;5081254;28;20096;-60
2021/07/20 07:35:14;;;;;;;26.20;23.15;;;640.30;2432.00;;;;;;5080615;28;20025;-62
2021/07/20 07:37:42;;;;;;;22.92;20.45;;;640.10;2432.00;;;;;;5083714;28;20027;-58
2021/07/20 07:40:11;;;;;;;21.92;19.60;;;640.00;2432.00;;;;;;5089116;28;20047;-64
2021/07/20 07:42:39;;;;;;;22.30;20.10;;;615.20;2432.00;;;;;;5080908;28;20098;-58
2021/07/20 07:45:07;;;;;;;22.63;20.25;;;615.20;2432.00;;;;;;5080939;28;20437;-62
2021/07/20 07:47:34;;;;;;;20.92;18.80;;;615.20;2432.00;;;;;;5082663;28;20024;-59
2021/07/20 07:50:01;;;;;;;19.40;17.48;;;615.30;2432.00;;;;;;5081728;28;20036;-64
2021/07/20 07:52:27;;;;;;;18.88;16.48;;;640.00;2432.00;;;;;;5080548;28;20020;-62
2021/07/20 07:54:54;;;;;;;19.02;17.08;;;640.00;2432.00;;;;;;5082437;28;20032;-59
2021/07/20 07:57:22;;;;;;;18.52;16.65;;;640.60;2432.00;;;;;;5081261;28;20103;-56
2021/07/20 07:59:52;;;;;;;20.08;18.05;;;640.70;2432.00;;;;;;5080275;28;20084;-60
2021/07/20 08:02:24;;;;;;;18.35;16.50;;;666.00;2432.00;;;;;;5080768;28;20017;-56
2021/07/20 08:04:52;;;;;;;17.27;15.52;;;666.50;2432.00;;;;;;5080327;28;20017;-56
2021/07/20 08:07:19;;;;;;;16.83;14.10;;;717.40;2432.00;;;;;;5081792;28;20020;-58
2021/07/20 08:09:46;;;;;;;16.40;14.80;;;717.30;2432.00;;;;;;5081581;28;20387;-60
2021/07/20 08:12:14;;;;;;;18.63;16.63;;;717.10;2432.00;;;;;;5080006;28;20036;-61
2021/07/20 08:14:40;;;;;;;15.63;14.23;;;717.40;2432.00;;;;;;5081306;28;20125;-58
2021/07/20 08:17:07;;;;;;;15.95;14.35;;;768.60;2432.00;;;;;;5081427;28;20367;-57
2021/07/20 08:19:37;;;;;;;14.68;13.05;;;794.20;2432.00;;;;;;5078388;28;20444;-56
2021/07/20 08:22:07;;;;;;;15.43;14.05;;;844.80;2432.00;;;;;;5082234;28;20065;-60
2021/07/20 08:24:46;;;;;;;15.35;13.75;;;870.70;2355.20;;;;;;5082315;28;20111;-61
2021/07/20 08:27:47;;;;;;;13.43;12.18;;;896.20;2176.00;;;;;;5079515;28;20016;-57
2021/07/20 08:30:14;;;;;;;13.68;12.38;;;845.10;2304.00;;;;;;5081647;28;20043;-59
2021/07/20 08:32:54;;;;;;;14.13;12.80;;;794.20;2432.00;;;;;;5080541;28;20020;-60
2021/07/20 08:35:25;;;;;;;13.48;12.07;;;768.90;2432.00;;;;;;5080537;28;20028;-66
2021/07/20 08:37:53;;;;;;;13.38;12.02;;;768.40;2432.00;;;;;;5079404;28;20032;-61
2021/07/20 08:40:37;;;;;;;13.15;11.85;;;743.30;2432.00;;;;;;5075868;28;20040;-59
2021/07/20 08:43:42;;;;;;;13.73;12.32;;;768.40;2432.00;;;;;;5073893;28;20111;-57
2021/07/20 08:46:13;;;;;;;16.17;12.48;;;768.30;2432.00;;;;;;5009520;28;20479;-64
2021/07/20 08:49:05;;;;;;;12.98;11.68;;;768.90;2432.00;;;;;;5009505;28;20029;-62
2021/07/20 08:51:41;;;;;;;13.85;12.38;;;768.90;2432.00;;;;;;5009687;28;20033;-59
2021/07/20 08:54:11;;;;;;;12.40;11.13;;;793.70;2432.00;;;;;;5009404;28;20026;-59
2021/07/20 08:56:41;;;;;;;13.38;11.70;;;768.60;2432.00;;;;;;5009270;28;20060;-58
2021/07/20 08:59:19;;;;;;;15.98;12.88;;;768.40;2432.00;;;;;;5009186;28;20080;-61
2021/07/20 09:02:18;;;;;;;13.50;12.32;;;768.60;2432.00;;;;;;5009310;28;20046;-57
2021/07/20 09:04:58;;;;;;;14.13;12.57;;;768.60;2432.00;;;;;;4992698;28;20064;-61
2021/07/20 09:07:28;;;;;;;15.77;13.18;;;768.40;2432.00;;;;;;5009474;28;20044;-59
2021/07/20 09:09:57;;;;;;;16.15;14.05;;;768.40;2432.00;;;;;;5009257;28;20037;-61
2021/07/20 09:12:28;;;;;;;14.45;13.05;;;743.30;2432.00;;;;;;4992101;28;20038;-58
2021/07/20 09:15:20;;;;;;;13.60;12.40;;;768.40;2432.00;;;;;;5009110;28;20072;-59
2021/07/20 09:18:17;;;;;;;18.95;14.15;;;768.10;2432.00;;;;;;5009249;28;20483;-57
2021/07/20 09:20:45;;;;;;;15.63;12.82;;;743.30;2432.00;;;;;;5009097;28;20038;-59
2021/07/20 09:23:22;;;;;;;15.52;13.18;;;742.80;2432.00;;;;;;5059695;28;20028;-59
2021/07/20 09:26:01;;;;;;;14.65;13.15;;;742.60;2432.00;;;;;;5090954;28;20032;-61
2021/07/20 09:28:56;;;;;;;15.77;13.93;;;717.50;2432.00;;;;;;5090537;28;20036;-62
2021/07/20 09:31:32;;;;;;;15.15;13.60;;;716.80;2432.00;;;;;;5090944;28;20036;-60
2021/07/20 09:34:42;;;;;;;14.07;12.65;;;691.30;2432.00;;;;;;5090827;28;20035;-57
2021/07/20 09:37:19;;;;;;;19.17;14.10;;;666.50;2432.00;;;;;;5008759;28;20102;-58
2021/07/20 09:40:10;;;;;;;15.43;13.82;;;691.30;2432.00;;;;;;5084578;28;20050;-61
2021/07/20 09:42:43;;;;;;;19.08;13.27;;;691.40;2432.00;;;;;;5090700;28;20107;-59
2021/07/20 09:45:14;;;;;;;16.88;13.18;;;691.50;2432.00;;;;;;5090501;28;20078;-58
2021/07/20 09:48:26;;;;;;;15.80;13.98;;;691.30;2432.00;;;;;;5090782;28;20027;-59
2021/07/20 09:51:02;;;;;;;13.57;12.25;;;692.00;2432.00;;;;;;5090863;28;20047;-62
2021/07/20 09:53:48;;;;;;;18.65;13.55;;;716.90;2432.00;;;;;;5090412;28;20485;-59
2021/07/20 09:57:08;;;;;;;15.50;12.23;;;717.10;2432.00;;;;;;5090568;28;20431;-64
2021/07/20 09:59:53;;;;;;;13.68;12.27;;;717.40;2432.00;;;;;;5008317;28;20515;-62
2021/07/20 10:02:35;;;;;;;13.45;12.05;;;717.70;2432.00;;;;;;5008448;28;20026;-61
2021/07/20 10:05:15;;;;;;;18.05;13.40;;;742.50;2432.00;;;;;;5008390;28;20030;-61
2021/07/20 10:08:05;;;;;;;13.65;11.75;;;742.90;2432.00;;;;;;5008464;28;20559;-63
2021/07/20 10:10:42;;;;;;;13.50;12.20;;;742.40;2432.00;;;;;;5008457;28;20037;-61
2021/07/20 10:13:17;;;;;;;15.18;13.10;;;742.40;2432.00;;;;;;5008225;28;20033;-63
2021/07/20 10:16:08;;;;;;;14.93;12.77;;;742.50;2432.00;;;;;;5008413;28;20034;-60
2021/07/20 10:18:42;;;;;;;15.02;11.77;;;742.60;2432.00;;;;;;5008376;28;20029;-61
2021/07/20 10:21:13;;;;;;;13.98;11.40;;;742.80;2432.00;;;;;;5008017;28;20029;-61
2021/07/20 10:23:53;;;;;;;12.60;11.30;;;742.90;2432.00;;;;;;5007949;28;20045;-62
2021/07/20 10:26:25;;;;;;;11.10;10.07;;;742.70;2432.00;;;;;;5006618;28;20121;-62
2021/07/20 10:29:09;;;;;;;13.40;11.32;;;742.80;2432.00;;;;;;5008494;28;20053;-58
2021/07/20 10:32:26;;;;;;;16.52;11.80;;;742.80;2432.00;;;;;;5089970;28;20034;-59
2021/07/20 10:35:00;;;;;;;13.27;12.00;;;742.80;2432.00;;;;;;5086082;28;20085;-60
2021/07/20 10:37:36;;;;;;;13.30;11.60;;;717.70;2432.00;;;;;;5089876;28;20024;-58
2021/07/20 10:40:16;;;;;;;17.85;13.75;;;717.10;2432.00;;;;;;5089961;28;20040;-57
2021/07/20 10:43:12;;;;;;;15.80;14.20;;;691.80;2432.00;;;;;;5088349;28;20039;-60
2021/07/20 10:45:40;;;;;;;13.85;12.23;;;691.80;2432.00;;;;;;5089777;28;20101;-62
2021/07/20 10:48:11;;;;;;;15.32;13.40;;;691.90;2432.00;;;;;;5089840;28;20023;-60
2021/07/20 10:50:53;;;;;;;15.13;13.52;;;717.10;2432.00;;;;;;5089690;28;20032;-63
2021/07/20 10:53:31;;;;;;;15.40;13.93;;;716.80;2432.00;;;;;;5093920;28;20138;-61
2021/07/20 10:56:16;;;;;;;15.00;13.00;;;691.80;2432.00;;;;;;5093742;28;20055;-64
2021/07/20 10:58:45;;;;;;;15.60;14.10;;;691.50;2432.00;;;;;;5093528;28;20043;-62
2021/07/20 11:01:36;;;;;;;15.40;13.80;;;691.40;2432.00;;;;;;5093805;28;20036;-59
2021/07/20 11:04:36;;;;;;;15.75;12.52;;;691.40;2432.00;;;;;;5085824;28;20485;-64
2021/07/20 11:07:06;;;;;;;16.20;13.93;;;691.80;2432.00;;;;;;5093707;28;20066;-64
2021/07/20 11:09:32;;;;;;;17.98;13.18;;;716.80;2432.00;;;;;;5093737;28;20028;-60
2021/07/20 11:12:04;;;;;;;19.13;12.70;;;716.90;2432.00;;;;;;5093440;28;20513;-59
2021/07/20 11:14:34;;;;;;;15.63;13.20;;;717.50;2432.00;;;;;;5093712;28;20028;-61
2021/07/20 11:17:00;;;;;;;13.50;12.13;;;717.50;2432.00;;;;;;5093496;28;20036;-61
2021/07/20 11:19:28;;;;;;;14.45;12.60;;;717.60;2432.00;;;;;;5092085;28;20097;-66
2021/07/20 11:21:56;;;;;;;14.57;11.98;;;742.80;2432.00;;;;;;5091641;28;20016;-62
2021/07/20 11:24:23;;;;;;;15.32;11.07;;;742.40;2432.00;;;;;;5092278;28;20024;-62
2021/07/20 11:26:49;;;;;;;21.05;12.20;;;691.60;2432.00;;;;;;5091926;28;20063;-60
2021/07/20 11:29:16;;;;;;;17.38;13.68;;;640.90;2432.00;;;;;;5091432;28;20128;-64
2021/07/20 11:31:51;;;;;;;18.33;13.70;;;615.00;2432.00;;;;;;5092119;28;20032;-56
2021/07/20 11:34:24;;;;;;;17.33;13.90;;;615.00;2432.00;;;;;;5090906;28;20375;-63
2021/07/20 11:36:54;;;;;;;20.48;14.02;;;615.00;2432.00;;;;;;5090133;28;20062;-59
2021/07/20 11:39:28;;;;;;;17.58;14.70;;;615.20;2432.00;;;;;;5091722;28;20123;-58
2021/07/20 11:42:11;;;;;;;14.93;13.27;;;640.10;2432.00;;;;;;5091761;28;20035;-61
2021/07/20 11:44:59;;;;;;;19.27;12.13;;;640.30;2432.00;;;;;;5091386;28;20493;-60
2021/07/20 11:47:37;;;;;;;17.10;14.10;;;640.50;2432.00;;;;;;5090669;28;20363;-60
2021/07/20 11:50:10;;;;;;;13.93;10.98;;;665.60;2432.00;;;;;;5091384;28;20016;-60
2021/07/20 11:52:50;;;;;;;13.18;10.25;;;665.90;2432.00;;;;;;5091248;28;20035;-59
2021/07/20 11:55:36;;;;;;;17.00;12.52;;;666.20;2432.00;;;;;;5091235;28;20028;-61
2021/07/20 11:58:35;;;;;;;16.15;12.15;;;666.20;2432.00;;;;;;5091118;28;20032;-59
2021/07/20 12:01:22;;;;;;;15.27;12.60;;;666.40;2432.00;;;;;;5091194;28;20047;-60
2021/07/20 12:04:25;;;;;;;15.20;12.23;;;666.50;2432.00;;;;;;5089856;28;20040;-59
2021/07/20 12:07:00;;;;;;;15.02;13.18;;;691.30;2432.00;;;;;;5091268;28;20068;-61
2021/07/20 12:09:55;;;;;;;17.05;14.35;;;666.50;2432.00;;;;;;5091162;28;20115;-60
2021/07/20 12:12:47;;;;;;;15.20;13.52;;;666.20;2432.00;;;;;;5090485;28;20039;-61
2021/07/20 12:15:15;;;;;;;15.43;13.05;;;666.50;2432.00;;;;;;5091104;28;20044;-59
2021/07/20 12:17:43;;;;;;;21.75;13.30;;;691.60;2432.00;;;;;;5090924;28;20478;-63
2021/07/20 12:20:10;;;;;;;14.65;12.57;;;692.10;2432.00;;;;;;5090585;28;20060;-61
2021/07/20 12:22:36;;;;;;;16.70;14.95;;;717.30;2432.00;;;;;;5090617;28;20027;-59
2021/07/20 12:25:06;;;;;;;15.80;13.18;;;717.50;2432.00;;;;;;5090263;28;20040;-64